Time;durP1;ratioP1;P1;durP2;ratioP2;P2;SDS_P1;SDS_P2;PMS_P1;PMS_P2;Temp;Humidity;BMP_temperature;BMP_pressure;BME280_temperature;BME280_humidity;BME280_pressure;Samples;Min_cycle;Max_cycle;Signal;HPM_P1;HPM_P2
2024/01/21 00:00:22;;;;;;;1999.90;999.90;;;;;;;-1.47;79.61;102314.50;10335844;28;20084;-65
2024/01/21 00:05:24;;;;;;;1999.90;999.90;;;;;;;-1.33;79.29;102297.63;10335731;28;20054;-65
2024/01/21 00:10:27;;;;;;;1999.90;999.90;;;;;;;-1.39;79.22;102296.66;10336158;28;20080;-65
2024/01/21 00:15:29;;;;;;;1999.90;999.90;;;;;;;-1.42;79.61;102283.75;10318205;28;20060;-65
2024/01/21 00:20:32;;;;;;;1999.90;999.90;;;;;;;-1.43;78.48;102271.75;10335817;28;20061;-65
2024/01/21 00:25:35;;;;;;;1999.90;999.90;;;;;;;-1.50;79.80;102265.63;10335041;28;20069;-65
2024/01/21 00:30:37;;;;;;;1999.90;999.90;;;;;;;-1.44;79.29;102259.75;10317594;28;20050;-66
2024/01/21 00:35:40;;;;;;;1999.90;999.90;;;;;;;-1.64;79.32;102262.84;10335166;28;20050;-65
2024/01/21 00:40:42;;;;;;;1999.90;999.90;;;;;;;-1.51;79.79;102263.94;10333788;28;20054;-65
2024/01/21 00:45:44;;;;;;;1999.90;999.90;;;;;;;-1.62;79.78;102270.59;10333672;28;20078;-65
2024/01/21 00:50:47;;;;;;;1999.90;999.90;;;;;;;-1.54;78.38;102256.16;10334834;28;20057;-65
2024/01/21 00:55:49;;;;;;;1999.90;999.90;;;;;;;-1.34;79.11;102252.19;10334374;28;20137;-65
2024/01/21 01:00:51;;;;;;;1999.90;999.90;;;;;;;-1.20;77.36;102241.25;10333337;28;20414;-65
2024/01/21 01:05:56;;;;;;;1999.90;999.90;;;;;;;-1.44;77.38;102231.50;10332635;28;20408;-65
2024/01/21 01:10:59;;;;;;;1999.90;999.90;;;;;;;-1.24;78.18;102230.09;10334462;28;20050;-65
2024/01/21 01:16:02;;;;;;;1999.90;999.90;;;;;;;-1.31;76.75;102229.13;10333564;28;20401;-65
2024/01/21 01:21:04;;;;;;;1999.90;999.90;;;;;;;-1.46;78.04;102228.91;10333615;28;20414;-65
2024/01/21 01:26:07;;;;;;;1999.90;999.90;;;;;;;-1.65;78.86;102216.59;10333515;28;20458;-65
2024/01/21 01:31:10;;;;;;;1999.90;999.90;;;;;;;-1.56;79.33;102214.19;10332857;28;20133;-65
2024/01/21 01:36:12;;;;;;;1999.90;999.90;;;;;;;-1.71;79.12;102207.09;10331974;28;20078;-65
2024/01/21 01:41:15;;;;;;;1999.90;999.90;;;;;;;-1.49;78.62;102198.03;10332713;28;20046;-65
2024/01/21 01:46:18;;;;;;;1999.90;999.90;;;;;;;-1.45;78.61;102194.63;10333776;28;20054;-65
2024/01/21 01:51:20;;;;;;;1999.90;999.90;;;;;;;-1.64;79.13;102180.66;10333092;28;20090;-65
2024/01/21 01:56:23;;;;;;;1999.90;999.90;;;;;;;-1.52;79.32;102162.84;10339126;28;20056;-65
2024/01/21 02:01:25;;;;;;;1999.90;999.90;;;;;;;-1.75;78.08;102149.69;10340024;28;20134;-65
2024/01/21 02:06:28;;;;;;;1999.90;999.90;;;;;;;-1.67;77.28;102142.09;10339183;28;20054;-65
2024/01/21 02:11:31;;;;;;;1999.90;999.90;;;;;;;-1.64;77.11;102129.31;10339667;28;20493;-65
2024/01/21 02:16:33;;;;;;;1999.90;999.90;;;;;;;-2.06;79.24;102120.09;10339379;28;20051;-65
2024/01/21 02:21:35;;;;;;;1999.90;999.90;;;;;;;-1.85;77.37;102123.84;10339790;28;20597;-65
2024/01/21 02:26:38;;;;;;;1999.90;999.90;;;;;;;-1.82;78.68;102108.50;10339621;28;20046;-65
2024/01/21 02:31:41;;;;;;;1999.90;999.90;;;;;;;-1.93;77.20;102105.78;10338748;28;20505;-65
2024/01/21 02:36:43;;;;;;;1999.90;999.90;;;;;;;-1.85;77.37;102099.03;10321810;28;20046;-65
2024/01/21 02:41:45;;;;;;;1999.90;999.90;;;;;;;-1.95;77.41;102074.94;10338435;28;20054;-65
2024/01/21 02:46:48;;;;;;;1999.90;999.90;;;;;;;-2.00;77.33;102068.00;10339540;28;20125;-65
2024/01/21 02:51:50;;;;;;;1999.90;999.90;;;;;;;-1.91;78.41;102056.16;10338568;28;20121;-65
2024/01/21 02:56:53;;;;;;;1999.90;999.90;;;;;;;-1.93;77.38;102049.31;10338749;28;20112;-65
2024/01/21 03:01:57;;;;;;;1999.90;999.90;;;;;;;-1.76;77.35;102050.38;10338188;28;20057;-65
2024/01/21 03:06:59;;;;;;;1999.90;999.90;;;;;;;-1.75;77.87;102029.00;10339009;28;20046;-65
2024/01/21 03:12:02;;;;;;;1999.90;999.90;;;;;;;-1.71;77.20;102020.50;10337801;28;20504;-65
2024/01/21 03:17:04;;;;;;;1999.90;999.90;;;;;;;-1.63;77.00;102023.19;10338152;28;20085;-65
2024/01/21 03:22:06;;;;;;;1999.90;999.90;;;;;;;-1.48;75.84;102008.78;10336911;28;20056;-65
2024/01/21 03:27:09;;;;;;;1999.90;999.90;;;;;;;-1.57;76.27;101996.69;10336687;28;20085;-65
2024/01/21 03:32:11;;;;;;;1999.90;999.90;;;;;;;-1.50;77.00;101983.06;10335945;28;20129;-65
2024/01/21 03:37:13;;;;;;;1999.90;999.90;;;;;;;-1.45;76.41;101966.00;10336250;28;20046;-65
2024/01/21 03:42:16;;;;;;;1999.90;999.90;;;;;;;-1.51;76.72;101958.25;10336744;28;20736;-65
2024/01/21 03:47:18;;;;;;;1999.90;999.90;;;;;;;-1.39;75.29;101953.22;10335824;28;20053;-65
2024/01/21 03:52:21;;;;;;;1999.90;999.90;;;;;;;-1.44;75.47;101965.16;10336967;28;20054;-65
2024/01/21 03:57:23;;;;;;;1999.90;999.90;;;;;;;-1.41;75.82;101957.50;10334759;28;20133;-65
2024/01/21 04:02:26;;;;;;;1999.90;999.90;;;;;;;-1.48;75.21;101936.84;10319266;28;20050;-65
2024/01/21 04:07:31;;;;;;;1999.90;999.90;;;;;;;-1.46;74.61;101940.28;10335201;28;20046;-65
2024/01/21 04:12:34;;;;;;;1999.90;999.90;;;;;;;-1.23;74.84;101932.81;10335022;28;20056;-65
2024/01/21 04:17:36;;;;;;;1999.90;999.90;;;;;;;-1.39;74.46;101937.81;10334738;28;20046;-65
2024/01/21 04:22:39;;;;;;;1999.90;999.90;;;;;;;-1.44;74.60;101924.06;10335823;28;20081;-65
2024/01/21 04:27:41;;;;;;;1999.90;999.90;;;;;;;-1.32;75.24;101908.75;10334450;28;20085;-65
2024/01/21 04:32:44;;;;;;;1999.90;999.90;;;;;;;-1.23;75.29;101891.72;10335427;28;20050;-65
2024/01/21 04:37:46;;;;;;;1999.90;999.90;;;;;;;-1.09;74.23;101896.97;10334542;28;20077;-65
2024/01/21 04:42:48;;;;;;;1999.90;999.90;;;;;;;-1.18;74.12;101892.59;10335125;28;20056;-65
2024/01/21 04:47:51;;;;;;;1999.90;999.90;;;;;;;-1.48;75.92;101886.31;10334919;28;20056;-65
2024/01/21 04:52:53;;;;;;;1999.90;999.90;;;;;;;-1.50;75.67;101878.63;10333419;28;20137;-65
2024/01/21 04:57:56;;;;;;;1999.90;999.90;;;;;;;-1.36;74.59;101865.03;10333997;28;20463;-65
2024/01/21 05:02:58;;;;;;;1999.90;999.90;;;;;;;-0.98;73.11;101855.06;10334533;28;20058;-65
2024/01/21 05:08:00;;;;;;;1999.90;999.90;;;;;;;-1.08;73.06;101831.88;10333275;28;20050;-65
2024/01/21 05:13:03;;;;;;;1999.90;999.90;;;;;;;-0.89;73.56;101830.28;10316598;28;20058;-65
2024/01/21 05:18:05;;;;;;;1999.90;999.90;;;;;;;-0.85;73.40;101825.16;10333002;28;20101;-65
2024/01/21 05:23:08;;;;;;;1999.90;999.90;;;;;;;-0.87;72.64;101821.75;10333830;28;20042;-65
2024/01/21 05:28:10;;;;;;;1999.90;999.90;;;;;;;-0.67;71.70;101810.69;10336734;28;20050;-65
2024/01/21 05:33:13;;;;;;;1999.90;999.90;;;;;;;-0.59;72.16;101803.88;10325148;28;20050;-65
2024/01/21 05:38:15;;;;;;;1999.90;999.90;;;;;;;-0.59;71.49;101799.63;10341371;28;20523;-65
2024/01/21 05:43:17;;;;;;;1999.90;999.90;;;;;;;-0.56;71.68;101798.75;10341900;28;20054;-65
2024/01/21 05:48:20;;;;;;;1999.90;999.90;;;;;;;-0.52;71.42;101790.22;10340547;28;20050;-65
2024/01/21 05:53:22;;;;;;;1999.90;999.90;;;;;;;-0.34;70.23;101775.69;10339924;28;20089;-65
2024/01/21 05:58:24;;;;;;;1999.90;999.90;;;;;;;-0.39;70.67;101752.50;10340690;28;20054;-65
2024/01/21 06:03:27;;;;;;;1999.90;999.90;;;;;;;-0.38;70.87;101757.66;10339307;28;20482;-65
2024/01/21 06:08:29;;;;;;;1999.90;999.90;;;;;;;0.02;70.67;101789.50;10340977;28;20050;-65
2024/01/21 06:13:32;;;;;;;1999.90;999.90;;;;;;;-0.02;69.72;101791.22;10340068;28;20081;-65
2024/01/21 06:18:34;;;;;;;1999.90;999.90;;;;;;;0.12;69.88;101783.53;10339390;28;20062;-65
2024/01/21 06:23:37;;;;;;;1999.90;999.90;;;;;;;0.08;69.08;101772.34;10339729;28;20058;-65
2024/01/21 06:28:39;;;;;;;1999.90;999.90;;;;;;;0.02;69.58;101786.94;10340196;28;20054;-65
2024/01/21 06:33:42;;;;;;;1999.90;999.90;;;;;;;0.25;71.21;101784.41;10322220;28;20413;-65
2024/01/21 06:38:45;;;;;;;1999.90;999.90;;;;;;;0.32;70.47;101778.41;10338229;28;20120;-65
2024/01/21 06:43:48;;;;;;;1999.90;999.90;;;;;;;0.24;71.17;101782.72;10339593;28;20050;-65
2024/01/21 06:48:50;;;;;;;1999.90;999.90;;;;;;;0.25;70.29;101781.81;10339478;28;20066;-65
2024/01/21 06:53:52;;;;;;;1999.90;999.90;;;;;;;0.63;68.81;101791.31;10338797;28;20061;-65
2024/01/21 06:58:55;;;;;;;1999.90;999.90;;;;;;;0.52;69.64;101792.16;10337729;28;20058;-65
2024/01/21 07:03:57;;;;;;;1999.90;999.90;;;;;;;0.58;69.58;101811.06;10338202;28;20052;-66
2024/01/21 07:09:00;;;;;;;1999.90;999.90;;;;;;;0.55;69.85;101809.34;10338666;28;20056;-66
2024/01/21 07:14:03;;;;;;;1999.90;999.90;;;;;;;0.73;68.68;101796.44;10338357;28;20054;-66
2024/01/21 07:19:06;;;;;;;1999.90;999.90;;;;;;;0.82;68.33;101774.09;10338189;28;20046;-66
2024/01/21 07:24:08;;;;;;;1999.90;999.90;;;;;;;0.84;68.73;101749.16;10337415;28;20406;-66
2024/01/21 07:29:12;;;;;;;1999.90;999.90;;;;;;;0.55;70.46;101747.47;10337207;28;20057;-66
2024/01/21 07:34:15;;;;;;;1999.90;999.90;;;;;;;0.87;68.66;101760.31;10337654;28;20050;-66
2024/01/21 07:39:18;;;;;;;1999.90;999.90;;;;;;;0.79;68.42;101710.53;10335769;28;20489;-66
2024/01/21 07:44:20;;;;;;;1999.90;999.90;;;;;;;0.92;68.42;101739.69;10337378;28;20050;-66
2024/01/21 07:49:22;;;;;;;1999.90;999.90;;;;;;;1.16;66.65;101743.94;10336513;28;20088;-66
2024/01/21 07:54:25;;;;;;;1999.90;999.90;;;;;;;1.13;67.55;101751.69;10336153;28;20060;-66
2024/01/21 07:59:27;;;;;;;1999.90;999.90;;;;;;;1.05;67.00;101772.34;10335510;28;20054;-66
2024/01/21 08:04:30;;;;;;;1999.90;999.90;;;;;;;1.33;65.68;101771.38;10335864;28;20401;-66
2024/01/21 08:09:32;;;;;;;1999.90;999.90;;;;;;;1.18;67.13;101816.16;10335227;28;20100;-66
2024/01/21 08:14:35;;;;;;;1999.90;999.90;;;;;;;1.36;67.05;101798.06;10334279;28;20464;-66
2024/01/21 08:19:38;;;;;;;1999.90;999.90;;;;;;;1.20;67.69;101824.78;10335941;28;20082;-66
2024/01/21 08:24:41;;;;;;;1999.90;999.90;;;;;;;1.11;68.01;101829.06;10335167;28;20046;-66
2024/01/21 08:29:43;;;;;;;1999.90;999.90;;;;;;;1.24;66.50;101835.06;10335629;28;20046;-66
2024/01/21 08:34:46;;;;;;;1999.90;999.90;;;;;;;1.33;66.94;101810.97;10335399;28;20046;-66
2024/01/21 08:39:48;;;;;;;1999.90;999.90;;;;;;;1.61;65.98;101819.47;10334638;28;20540;-66
2024/01/21 08:44:51;;;;;;;1999.90;999.90;;;;;;;1.65;67.16;101828.09;10335101;28;20100;-66
2024/01/21 08:49:54;;;;;;;1999.90;999.90;;;;;;;1.78;67.93;101826.28;10333865;28;20093;-66
2024/01/21 08:54:57;;;;;;;1999.90;999.90;;;;;;;1.63;67.59;101841.00;10334184;28;20134;-66
2024/01/21 09:00:00;;;;;;;1999.90;999.90;;;;;;;1.96;66.34;101848.59;10332818;28;20046;-65
2024/01/21 09:05:02;;;;;;;1999.90;999.90;;;;;;;1.73;67.40;101818.59;10333506;28;20050;-66
2024/01/21 09:10:08;;;;;;;1999.90;999.90;;;;;;;1.77;71.02;101827.16;10329072;28;20066;-66
2024/01/21 09:15:11;;;;;;;1999.90;999.90;;;;;;;2.21;67.56;101837.25;10301136;28;20082;-66
2024/01/21 09:20:14;;;;;;;1999.90;999.90;;;;;;;2.23;68.16;101845.84;10333400;28;20058;-66
2024/01/21 09:25:17;;;;;;;1999.90;999.90;;;;;;;2.36;68.59;101864.72;10298174;28;20054;-66
2024/01/21 09:30:20;;;;;;;1999.90;999.90;;;;;;;2.27;70.69;101869.09;10297891;28;20137;-64
2024/01/21 09:35:23;;;;;;;1999.90;999.90;;;;;;;2.43;70.85;101870.72;10310579;28;20042;-65
2024/01/21 09:40:26;;;;;;;1999.90;999.90;;;;;;;2.25;70.71;101868.25;10309418;28;20050;-65
2024/01/21 09:45:31;;;;;;;1999.90;999.90;;;;;;;2.39;70.36;101861.28;10310760;28;20047;-67
2024/01/21 09:50:35;;;;;;;1999.90;999.90;;;;;;;2.37;72.46;101865.59;10327477;28;20054;-66
2024/01/21 09:55:38;;;;;;;1999.90;999.90;;;;;;;2.47;71.48;101856.94;10296326;28;20125;-66
2024/01/21 10:00:41;;;;;;;1999.90;999.90;;;;;;;2.46;72.50;101868.13;10306244;28;20043;-65
2024/01/21 10:05:45;;;;;;;1999.90;999.90;;;;;;;2.42;74.24;101871.59;10327661;28;20043;-66
2024/01/21 10:10:47;;;;;;;1999.90;999.90;;;;;;;2.64;74.20;101861.09;10302398;28;20074;-65
2024/01/21 10:15:50;;;;;;;1999.90;999.90;;;;;;;2.87;74.72;101868.69;10337612;28;20125;-66
2024/01/21 10:20:53;;;;;;;1999.90;999.90;;;;;;;2.88;77.42;101884.19;10335321;28;20093;-66
2024/01/21 10:25:59;;;;;;;1999.90;999.90;;;;;;;2.55;78.63;101855.13;10363902;28;20046;-66
2024/01/21 10:31:02;;;;;;;1999.90;999.90;;;;;;;3.08;80.87;101876.28;10349784;28;20402;-65
2024/01/21 10:36:04;;;;;;;1999.90;999.90;;;;;;;2.76;81.89;101863.63;10320215;28;20051;-64
2024/01/21 10:41:08;;;;;;;1999.90;999.90;;;;;;;3.02;82.35;101849.59;10337924;28;20057;-64
2024/01/21 10:46:10;;;;;;;1999.90;999.90;;;;;;;3.15;83.89;101844.28;10338648;28;20058;-64
2024/01/21 10:51:14;;;;;;;1999.90;999.90;;;;;;;3.40;83.70;101833.69;10336897;28;20571;-64
2024/01/21 10:56:18;;;;;;;1999.90;999.90;;;;;;;3.38;84.55;101831.97;10321261;28;20046;-64
2024/01/21 11:01:22;;;;;;;1999.90;999.90;;;;;;;3.34;84.63;101829.41;10337135;28;20068;-65
2024/01/21 11:06:25;;;;;;;1999.90;999.90;;;;;;;3.40;86.53;101820.75;10335635;28;20097;-64
2024/01/21 11:11:27;;;;;;;1999.90;999.90;;;;;;;3.46;87.54;101819.81;10336085;28;20061;-64
2024/01/21 11:16:29;;;;;;;1999.90;999.90;;;;;;;3.27;89.11;101822.59;10335657;28;20042;-64
2024/01/21 11:21:34;;;;;;;1999.90;999.90;;;;;;;3.19;90.03;101823.56;10337979;28;20141;-64
2024/01/21 11:26:41;;;;;;;1999.90;999.90;;;;;;;3.22;91.75;101820.94;10334926;28;20046;-64
2024/01/21 11:31:43;;;;;;;1999.90;999.90;;;;;;;3.28;91.39;101818.28;10337469;28;20409;-64
2024/01/21 11:36:46;;;;;;;1999.90;999.90;;;;;;;3.50;90.14;101822.34;10335818;28;20046;-64
2024/01/21 11:41:49;;;;;;;1999.90;999.90;;;;;;;3.51;88.49;101811.13;10336850;28;20497;-64
2024/01/21 11:46:54;;;;;;;1999.90;999.90;;;;;;;3.62;88.68;101838.63;10335578;28;20486;-64
2024/01/21 11:51:57;;;;;;;1999.90;999.90;;;;;;;3.76;86.28;101828.94;10335986;28;20062;-65
2024/01/21 11:57:00;;;;;;;1999.90;999.90;;;;;;;3.69;87.22;101811.78;10336249;28;20060;-64
2024/01/21 12:02:05;;;;;;;1999.90;999.90;;;;;;;3.48;85.49;101825.81;10335559;28;20134;-64
2024/01/21 12:07:09;;;;;;;1999.90;999.90;;;;;;;3.80;85.56;101827.16;10344881;23;20053;-66
2024/01/21 12:12:13;;;;;;;1999.90;999.90;;;;;;;3.96;84.48;101820.91;10335806;28;20058;-66
2024/01/21 12:17:15;;;;;;;1999.90;999.90;;;;;;;3.91;85.61;101827.88;10336055;28;20043;-67
2024/01/21 12:22:18;;;;;;;1999.90;999.90;;;;;;;4.04;83.87;101820.81;10335272;28;20129;-67
2024/01/21 12:27:20;;;;;;;1999.90;999.90;;;;;;;3.97;85.09;101835.59;10333865;28;20405;-66
2024/01/21 12:32:22;;;;;;;1999.90;999.90;;;;;;;3.80;85.25;101835.81;10335634;28;20089;-66
2024/01/21 12:37:25;;;;;;;1999.90;999.90;;;;;;;3.90;85.36;101837.41;10333805;28;20074;-66
2024/01/21 12:42:28;;;;;;;1999.90;999.90;;;;;;;3.98;85.71;101831.25;10334654;28;20129;-67
2024/01/21 12:47:30;;;;;;;1999.90;999.90;;;;;;;3.94;86.47;101821.81;10335110;28;20057;-67
2024/01/21 12:52:33;;;;;;;1999.90;999.90;;;;;;;4.04;86.30;101813.88;10317865;28;20061;-67
2024/01/21 12:57:35;;;;;;;1999.90;999.90;;;;;;;4.24;87.28;101823.97;10334756;28;20056;-67
2024/01/21 13:02:38;;;;;;;1999.90;999.90;;;;;;;4.00;87.63;101822.59;10332971;28;20572;-67
2024/01/21 13:07:41;;;;;;;1999.90;999.90;;;;;;;4.00;87.49;101812.22;10334348;28;20124;-67
2024/01/21 13:12:43;;;;;;;1999.90;999.90;;;;;;;4.14;88.20;101798.22;10333911;28;20540;-67
2024/01/21 13:17:46;;;;;;;1999.90;999.90;;;;;;;4.18;88.89;101820.63;10334299;28;20046;-68
2024/01/21 13:22:49;;;;;;;1999.90;999.90;;;;;;;4.20;89.32;101817.13;10333164;28;20129;-68
2024/01/21 13:33:13;;;;;;;1999.90;999.90;;;;;;;4.20;91.03;101808.47;10332523;28;20196;-67
2024/01/21 13:38:19;;;;;;;1999.90;999.90;;;;;;;4.27;90.46;101789.38;10332736;28;20046;-68
2024/01/21 13:43:22;;;;;;;1999.90;999.90;;;;;;;4.27;91.32;101774.69;10332806;28;20074;-68
2024/01/21 13:48:24;;;;;;;1999.90;999.90;;;;;;;4.19;91.73;101773.94;10334046;28;20047;-68
2024/01/21 13:53:26;;;;;;;1999.90;999.90;;;;;;;4.27;92.57;101777.28;10341682;28;20064;-67
2024/01/21 13:58:29;;;;;;;1999.90;999.90;;;;;;;4.28;93.29;101771.19;10339608;28;20125;-68
2024/01/21 14:03:31;;;;;;;1999.90;999.90;;;;;;;4.13;94.24;101783.53;10341350;28;20054;-67
2024/01/21 14:08:34;;;;;;;1999.90;999.90;;;;;;;4.26;95.09;101783.31;10340357;28;20493;-67
2024/01/21 14:13:37;;;;;;;1999.90;999.90;;;;;;;4.14;96.13;101780.09;10340959;28;20064;-67
2024/01/21 14:18:40;;;;;;;1999.90;999.90;;;;;;;4.31;96.85;101780.66;10340029;28;20404;-68
2024/01/21 14:23:43;;;;;;;1999.90;999.90;;;;;;;4.15;98.36;101754.13;10322770;28;20060;-67
2024/01/21 14:28:46;;;;;;;1999.90;999.90;;;;;;;4.44;98.04;101751.06;10339639;28;20058;-68
2024/01/21 14:33:49;;;;;;;1999.90;999.90;;;;;;;4.20;98.56;101749.75;10338380;28;20387;-68
2024/01/21 14:38:51;;;;;;;1999.90;999.90;;;;;;;4.20;100.00;101754.94;10339299;28;20117;-68
2024/01/21 14:43:54;;;;;;;1999.90;999.90;;;;;;;4.27;100.00;101758.28;10338677;28;20050;-68
2024/01/21 14:48:56;;;;;;;1999.90;999.90;;;;;;;4.40;100.00;101754.56;10339519;28;20054;-67
2024/01/21 14:53:59;;;;;;;1999.90;999.90;;;;;;;4.49;100.00;101742.34;10339398;28;20129;-68
2024/01/21 14:59:01;;;;;;;1999.90;999.90;;;;;;;4.47;100.00;101740.66;10338197;28;20466;-68
2024/01/21 15:04:03;;;;;;;1999.90;999.90;;;;;;;4.41;100.00;101739.91;10338984;28;20126;-68
2024/01/21 15:09:07;;;;;;;1999.90;999.90;;;;;;;4.38;100.00;101768.47;10338002;28;20493;-68
2024/01/21 15:14:18;;;;;;;1999.90;999.90;;;;;;;4.31;100.00;101749.56;10338678;28;20054;-68
2024/01/21 15:19:22;;;;;;;1999.90;999.90;;;;;;;4.33;100.00;101719.28;10322435;28;20050;-68
2024/01/21 15:24:24;;;;;;;1999.90;999.90;;;;;;;4.27;100.00;101709.88;10338240;28;20062;-68
2024/01/21 15:29:27;;;;;;;1999.90;999.90;;;;;;;4.38;100.00;101694.13;10338004;28;20066;-68
2024/01/21 15:34:30;;;;;;;1999.90;999.90;;;;;;;4.25;100.00;101708.16;10337818;28;20050;-68
2024/01/21 15:39:33;;;;;;;1999.90;999.90;;;;;;;4.26;100.00;101704.72;10337615;28;20054;-68
2024/01/21 15:44:36;;;;;;;1999.90;999.90;;;;;;;4.36;100.00;101690.69;10336865;28;20077;-68
2024/01/21 15:49:39;;;;;;;1999.90;999.90;;;;;;;4.21;100.00;101702.19;10336585;28;20042;-68
2024/01/21 15:54:41;;;;;;;1999.90;999.90;;;;;;;4.34;100.00;101696.78;10337131;28;20054;-68
2024/01/21 15:59:46;;;;;;;1999.90;999.90;;;;;;;4.06;100.00;101705.88;10336773;28;20049;-68
2024/01/21 16:04:48;;;;;;;1999.90;999.90;;;;;;;4.16;100.00;101723.88;10336121;28;20065;-67
2024/01/21 16:09:52;;;;;;;1999.90;999.90;;;;;;;4.26;100.00;101702.13;10334707;28;20051;-68
2024/01/21 16:14:54;;;;;;;1999.90;999.90;;;;;;;4.13;100.00;101690.25;10317698;28;20053;-68
2024/01/21 16:19:57;;;;;;;1999.90;999.90;;;;;;;4.01;100.00;101705.09;10334337;28;20093;-68
2024/01/21 16:24:59;;;;;;;1999.90;999.90;;;;;;;4.46;100.00;101688.81;10335251;28;20054;-67
2024/01/21 16:30:02;;;;;;;1999.90;999.90;;;;;;;4.38;100.00;101691.53;10335161;28;20095;-68
2024/01/21 16:35:05;;;;;;;1999.90;999.90;;;;;;;4.41;100.00;101670.75;10334331;28;20137;-67
2024/01/21 16:40:08;;;;;;;1999.90;999.90;;;;;;;4.56;100.00;101656.63;10334228;28;20129;-68
2024/01/21 16:45:18;;;;;;;1999.90;999.90;;;;;;;4.63;100.00;101653.03;10334091;28;20054;-67
2024/01/21 16:50:21;;;;;;;1999.90;999.90;;;;;;;4.26;100.00;101640.75;10333351;28;20097;-67
2024/01/21 16:55:23;;;;;;;1999.90;999.90;;;;;;;4.15;100.00;101597.75;10334835;28;20333;-67
2024/01/21 17:00:36;;;;;;;1999.90;999.90;;;;;;;4.15;100.00;101597.75;10332997;28;20125;-68
2024/01/21 17:05:39;;;;;;;1999.90;999.90;;;;;;;4.07;100.00;101626.41;10333524;28;20046;-67
2024/01/21 17:10:45;;;;;;;1999.90;999.90;;;;;;;4.16;100.00;101653.91;10333893;28;20066;-67
2024/01/21 17:15:48;;;;;;;1999.90;999.90;;;;;;;4.09;100.00;101658.34;10333258;28;20054;-67
2024/01/21 17:20:51;;;;;;;1999.90;999.90;;;;;;;4.18;100.00;101634.00;10333677;28;20050;-67
2024/01/21 17:25:54;;;;;;;1999.90;999.90;;;;;;;4.16;100.00;101640.94;10340500;28;20050;-67
2024/01/21 17:30:56;;;;;;;1999.90;999.90;;;;;;;4.23;100.00;101635.59;10342510;28;20061;-68
2024/01/21 17:36:00;;;;;;;1999.90;999.90;;;;;;;4.06;100.00;101624.69;10342267;28;20042;-67
2024/01/21 17:41:03;;;;;;;1999.90;999.90;;;;;;;4.39;100.00;101641.38;10340393;28;20573;-67
2024/01/21 17:46:07;;;;;;;1999.90;999.90;;;;;;;4.21;100.00;101644.31;10342091;28;20050;-67
2024/01/21 17:51:10;;;;;;;1999.90;999.90;;;;;;;4.19;100.00;101636.56;10341852;28;20053;-67
2024/01/21 17:56:16;;;;;;;1999.90;999.90;;;;;;;4.30;100.00;101638.09;10340806;28;20050;-67
2024/01/21 18:01:18;;;;;;;1999.90;999.90;;;;;;;4.18;100.00;101632.25;10340282;28;20064;-68
2024/01/21 18:06:20;;;;;;;1999.90;999.90;;;;;;;4.31;100.00;101621.69;10340618;28;20046;-67
2024/01/21 18:11:23;;;;;;;1999.90;999.90;;;;;;;4.15;100.00;101626.25;10339283;28;20062;-68
2024/01/21 18:16:25;;;;;;;1999.90;999.90;;;;;;;4.33;100.00;101617.31;10340852;28;20069;-68
2024/01/21 18:21:29;;;;;;;1999.90;999.90;;;;;;;4.11;100.00;101611.66;10339539;28;20129;-68
2024/01/21 18:26:32;;;;;;;1999.90;999.90;;;;;;;4.24;100.00;101601.03;10339373;28;20093;-68
2024/01/21 18:31:35;;;;;;;1999.90;999.90;;;;;;;4.19;100.00;101596.84;10340340;28;20065;-68
2024/01/21 18:36:38;;;;;;;1999.90;999.90;;;;;;;4.34;100.00;101572.34;10339203;28;20048;-68
2024/01/21 18:41:40;;;;;;;1999.90;999.90;;;;;;;4.25;100.00;101574.25;10339909;28;20054;-68
2024/01/21 18:46:45;;;;;;;1999.90;999.90;;;;;;;4.33;100.00;101563.72;10339757;28;20046;-67
2024/01/21 18:51:53;;;;;;;1999.90;999.90;;;;;;;4.35;100.00;101550.72;10338399;28;20089;-67
2024/01/21 18:56:55;;;;;;;1999.90;999.90;;;;;;;4.36;100.00;101537.72;10322899;28;20049;-68
2024/01/21 19:01:58;;;;;;;1999.90;999.90;;;;;;;4.44;100.00;101532.41;10338408;28;20050;-68
2024/01/21 19:07:00;;;;;;;1999.90;999.90;;;;;;;4.25;100.00;101539.66;10338800;28;20405;-68
2024/01/21 19:12:02;;;;;;;1999.90;999.90;;;;;;;4.33;100.00;101552.50;10320910;28;20064;-68
2024/01/21 19:17:05;;;;;;;1999.90;999.90;;;;;;;4.15;100.00;101543.31;10336777;28;20068;-68
2024/01/21 19:22:08;;;;;;;1999.90;999.90;;;;;;;4.16;100.00;101555.41;10337251;28;20078;-68
2024/01/21 19:27:10;;;;;;;1999.90;999.90;;;;;;;4.31;100.00;101530.94;10338150;28;20125;-67
2024/01/21 19:32:13;;;;;;;1999.90;999.90;;;;;;;4.29;100.00;101502.44;10338088;28;20129;-68
2024/01/21 19:37:15;;;;;;;1999.90;999.90;;;;;;;4.25;100.00;101511.16;10337760;28;20050;-68
2024/01/21 19:42:17;;;;;;;1999.90;999.90;;;;;;;4.24;100.00;101488.72;10337695;28;20077;-68
2024/01/21 19:47:20;;;;;;;1999.90;999.90;;;;;;;4.44;100.00;101473.63;10335257;28;20042;-67
2024/01/21 19:52:22;;;;;;;1999.90;999.90;;;;;;;4.47;100.00;101462.31;10337225;28;20053;-68
2024/01/21 19:57:25;;;;;;;1999.90;999.90;;;;;;;4.62;100.00;101455.94;10336293;28;20498;-68
2024/01/21 20:02:27;;;;;;;1999.90;999.90;;;;;;;4.69;100.00;101431.59;10335712;28;20054;-68
2024/01/21 20:07:29;;;;;;;1999.90;999.90;;;;;;;4.76;100.00;101399.44;10335475;28;20050;-68
2024/01/21 20:12:32;;;;;;;1999.90;999.90;;;;;;;4.76;100.00;101391.63;10335813;28;20141;-68
2024/01/21 20:17:34;;;;;;;1999.90;999.90;;;;;;;4.99;100.00;101379.84;10335005;28;20058;-68
2024/01/21 20:22:37;;;;;;;1999.90;999.90;;;;;;;5.02;100.00;101365.03;10336058;28;20057;-68
2024/01/21 20:27:39;;;;;;;1999.90;999.90;;;;;;;5.14;100.00;101371.66;10334056;28;20480;-68
2024/01/21 20:32:42;;;;;;;1999.90;999.90;;;;;;;5.16;100.00;101366.44;10335110;28;20560;-67
2024/01/21 20:37:46;;;;;;;1999.90;999.90;;;;;;;5.22;100.00;101353.31;10335405;28;20129;-68
2024/01/21 20:42:48;;;;;;;1999.90;999.90;;;;;;;5.20;100.00;101352.50;10333719;28;20053;-68
2024/01/21 20:47:50;;;;;;;1999.90;999.90;;;;;;;5.24;100.00;101314.31;10335188;28;20050;-68
2024/01/21 20:52:55;;;;;;;1999.90;999.90;;;;;;;5.32;100.00;101325.34;10335049;28;20104;-67
2024/01/21 20:57:57;;;;;;;1999.90;999.90;;;;;;;5.09;100.00;101341.53;10334516;28;20101;-68
2024/01/21 21:02:59;;;;;;;1999.90;999.90;;;;;;;5.40;100.00;101298.28;10334156;28;20054;-68
2024/01/21 21:08:04;;;;;;;1999.90;999.90;;;;;;;5.32;100.00;101305.44;10333243;28;20080;-67
2024/01/21 21:13:06;;;;;;;1999.90;999.90;;;;;;;5.44;100.00;101322.41;10332814;28;20050;-68
2024/01/21 21:18:08;;;;;;;1999.90;999.90;;;;;;;5.58;100.00;101270.94;10334394;28;20046;-68
2024/01/21 21:23:11;;;;;;;1999.90;999.90;;;;;;;5.57;100.00;101260.59;10333677;28;20437;-68
2024/01/21 21:28:13;;;;;;;1999.90;999.90;;;;;;;5.68;100.00;101239.47;10334310;28;20054;-68
2024/01/21 21:33:16;;;;;;;1999.90;999.90;;;;;;;5.66;100.00;101262.06;10334201;28;20050;-68
2024/01/21 21:38:19;;;;;;;1999.90;999.90;;;;;;;5.80;100.00;101249.53;10333982;28;20117;-68
2024/01/21 21:43:21;;;;;;;1999.90;999.90;;;;;;;5.88;100.00;101221.53;10333953;28;20046;-68
2024/01/21 21:48:23;;;;;;;1999.90;999.90;;;;;;;5.81;100.00;101194.03;10333905;28;20049;-68
2024/01/21 21:53:26;;;;;;;1999.90;999.90;;;;;;;6.05;100.00;101181.19;10333741;28;20078;-69
2024/01/21 21:58:29;;;;;;;1999.90;999.90;;;;;;;5.88;100.00;101211.13;10333632;28;20082;-68
2024/01/21 22:03:31;;;;;;;1999.90;999.90;;;;;;;5.79;100.00;101208.84;10333595;28;20054;-68